createdAt,value
2023-04-08T00:02:05.433Z,100.00
2023-04-08T00:04:33.600Z,100.00
2023-04-08T00:07:01.481Z,100.00
2023-04-08T00:09:29.751Z,100.00
2023-04-08T00:11:57.689Z,100.00
2023-04-08T00:14:28.244Z,100.00
2023-04-08T00:16:56.928Z,100.00
2023-04-08T00:19:24.955Z,100.00
2023-04-08T00:21:52.599Z,100.00
2023-04-08T00:24:20.759Z,100.00
2023-04-08T00:26:48.357Z,100.00
2023-04-08T00:29:16.610Z,100.00
2023-04-08T00:31:46.034Z,100.00
2023-04-08T00:34:16.453Z,100.00
2023-04-08T00:36:48.037Z,100.00
2023-04-08T00:39:15.691Z,100.00
2023-04-08T00:41:43.289Z,100.00
2023-04-08T00:44:10.989Z,100.00
2023-04-08T00:46:42.301Z,100.00
2023-04-08T00:49:12.351Z,100.00
2023-04-08T00:51:40.061Z,100.00
2023-04-08T00:54:07.878Z,100.00
2023-04-08T00:56:37.596Z,100.00
2023-04-08T00:59:05.916Z,100.00
2023-04-08T01:01:40.703Z,100.00
2023-04-08T01:04:17.777Z,100.00
2023-04-08T01:06:52.252Z,100.00
2023-04-08T01:09:28.063Z,100.00
2023-04-08T01:11:57.984Z,100.00
2023-04-08T01:14:28.266Z,100.00
2023-04-08T01:17:00.786Z,100.00
2023-04-08T01:19:32.997Z,100.00
2023-04-08T01:22:12.913Z,100.00
2023-04-08T01:24:44.297Z,100.00
2023-04-08T01:27:15.135Z,100.00
2023-04-08T01:29:45.384Z,100.00
2023-04-08T01:32:15.096Z,100.00
2023-04-08T01:34:44.107Z,100.00
2023-04-08T01:37:13.579Z,100.00
2023-04-08T01:39:42.896Z,100.00
2023-04-08T01:42:13.824Z,100.00
2023-04-08T01:44:42.331Z,100.00
2023-04-08T01:47:13.416Z,100.00
2023-04-08T01:49:45.426Z,100.00
2023-04-08T01:52:16.567Z,100.00
2023-04-08T01:54:44.255Z,100.00
2023-04-08T01:57:19.726Z,100.00
2023-04-08T01:59:50.634Z,100.00
2023-04-08T02:02:21.382Z,100.00
2023-04-08T02:04:49.670Z,100.00
2023-04-08T02:07:18.702Z,100.00
2023-04-08T02:09:48.543Z,100.00
2023-04-08T02:12:18.716Z,100.00
2023-04-08T02:14:46.347Z,100.00
2023-04-08T02:17:25.077Z,100.00
2023-04-08T02:20:00.185Z,100.00
2023-04-08T02:22:34.321Z,100.00
2023-04-08T02:25:04.539Z,100.00
2023-04-08T02:27:35.661Z,100.00
2023-04-08T02:30:08.846Z,100.00
2023-04-08T02:32:45.525Z,100.00
2023-04-08T02:35:15.500Z,100.00
2023-04-08T02:37:50.614Z,100.00
2023-04-08T02:40:24.558Z,100.00
2023-04-08T02:42:54.326Z,100.00
2023-04-08T02:45:30.195Z,100.00
2023-04-08T02:47:58.495Z,100.00
2023-04-08T02:50:26.831Z,100.00
2023-04-08T02:52:58.208Z,100.00
2023-04-08T02:55:27.355Z,100.00
2023-04-08T02:57:56.380Z,100.00
2023-04-08T03:00:26.118Z,100.00
2023-04-08T03:02:55.304Z,100.00
2023-04-08T03:05:23.206Z,100.00
2023-04-08T03:07:50.917Z,100.00
2023-04-08T03:10:18.514Z,100.00
2023-04-08T03:12:47.007Z,100.00
2023-04-08T03:15:16.146Z,100.00
2023-04-08T03:17:45.905Z,100.00
2023-04-08T03:20:13.739Z,100.00
2023-04-08T03:22:41.566Z,100.00
2023-04-08T03:25:10.183Z,100.00
2023-04-08T03:27:37.946Z,100.00
2023-04-08T03:30:08.874Z,100.00
2023-04-08T03:32:38.556Z,100.00
2023-04-08T03:35:07.162Z,100.00
2023-04-08T03:37:35.098Z,100.00
2023-04-08T03:40:11.425Z,100.00
2023-04-08T03:42:40.354Z,100.00
2023-04-08T03:45:17.147Z,100.00
2023-04-08T03:47:46.951Z,100.00
2023-04-08T03:50:14.725Z,100.00
2023-04-08T03:52:49.872Z,100.00
2023-04-08T03:55:20.150Z,100.00
2023-04-08T03:57:47.728Z,100.00
2023-04-08T04:00:15.959Z,100.00
2023-04-08T04:02:53.611Z,100.00
2023-04-08T04:05:23.404Z,100.00
2023-04-08T04:07:54.373Z,100.00
2023-04-08T04:10:22.786Z,100.00
2023-04-08T04:12:54.112Z,100.00
2023-04-08T04:15:28.490Z,100.00
2023-04-08T04:18:01.228Z,100.00
2023-04-08T04:20:29.369Z,100.00
2023-04-08T04:22:58.520Z,100.00
2023-04-08T04:25:29.658Z,100.00
2023-04-08T04:28:10.854Z,100.00
2023-04-08T04:30:40.644Z,100.00
2023-04-08T04:33:17.353Z,100.00
2023-04-08T04:35:55.739Z,100.00
2023-04-08T04:38:23.568Z,100.00
2023-04-08T04:40:52.220Z,100.00
2023-04-08T04:43:20.033Z,100.00
2023-04-08T04:45:53.363Z,100.00
2023-04-08T04:48:22.941Z,100.00
2023-04-08T04:50:55.601Z,100.00
2023-04-08T04:53:23.798Z,100.00
2023-04-08T04:55:52.560Z,100.00
2023-04-08T04:58:20.306Z,100.00
2023-04-08T05:00:49.001Z,100.00
2023-04-08T05:03:18.111Z,100.00
2023-04-08T05:05:55.091Z,100.00
2023-04-08T05:08:24.969Z,100.00
2023-04-08T05:10:54.161Z,100.00
2023-04-08T05:13:27.802Z,100.00
2023-04-08T05:15:56.318Z,100.00
2023-04-08T05:18:23.893Z,100.00
2023-04-08T05:20:59.520Z,100.00
2023-04-08T05:23:27.452Z,100.00
2023-04-08T05:25:55.119Z,100.00
2023-04-08T05:28:28.707Z,100.00
2023-04-08T05:30:56.471Z,98.50
2023-04-08T05:33:24.063Z,98.90
2023-04-08T05:35:52.668Z,100.00
2023-04-08T05:38:23.599Z,91.74
2023-04-08T05:40:53.071Z,88.63
2023-04-08T05:43:20.764Z,91.41
2023-04-08T05:45:49.382Z,85.30
2023-04-08T05:48:17.433Z,81.20
2023-04-08T05:50:45.132Z,76.48
2023-04-08T05:53:13.026Z,75.54
2023-04-08T05:55:42.567Z,79.67
2023-04-08T05:58:10.539Z,85.06
2023-04-08T06:00:38.144Z,80.02
2023-04-08T06:03:20.494Z,80.34
2023-04-08T06:05:48.780Z,79.37
2023-04-08T06:08:16.895Z,78.82
2023-04-08T06:10:50.537Z,84.09
2023-04-08T06:13:18.756Z,87.11
2023-04-08T06:15:46.704Z,81.94
2023-04-08T06:18:14.917Z,80.92
2023-04-08T06:20:43.628Z,82.39
2023-04-08T06:23:11.173Z,84.14
2023-04-08T06:25:40.770Z,83.44
2023-04-08T06:28:09.909Z,76.95
2023-04-08T06:30:38.847Z,75.69
2023-04-08T06:33:07.853Z,75.28
2023-04-08T06:35:35.650Z,71.12
2023-04-08T06:38:03.502Z,69.31
2023-04-08T06:40:33.763Z,76.30
2023-04-08T06:43:01.812Z,73.98
2023-04-08T06:45:30.893Z,75.77
2023-04-08T06:47:58.758Z,75.44
2023-04-08T06:50:26.582Z,84.15
2023-04-08T06:52:55.488Z,87.47
2023-04-08T06:55:23.288Z,84.18
2023-04-08T06:57:53.252Z,80.08
2023-04-08T07:00:21.218Z,83.77
2023-04-08T07:03:10.832Z,73.03
2023-04-08T07:05:39.027Z,73.53
2023-04-08T07:08:06.786Z,71.35
2023-04-08T07:10:40.468Z,65.97
2023-04-08T07:13:08.490Z,67.47
2023-04-08T07:15:36.045Z,67.95
2023-04-08T07:18:04.673Z,64.72
2023-04-08T07:20:33.999Z,66.11
2023-04-08T07:23:03.522Z,64.80
2023-04-08T07:25:33.320Z,66.08
2023-04-08T07:28:00.969Z,67.82
2023-04-08T07:30:29.950Z,69.79
2023-04-08T07:32:59.200Z,73.29
2023-04-08T07:35:30.136Z,78.33
2023-04-08T07:37:59.414Z,79.86
2023-04-08T07:40:26.954Z,78.44
2023-04-08T07:42:54.662Z,78.48
2023-04-08T07:45:22.453Z,83.46
2023-04-08T07:47:50.760Z,80.51
2023-04-08T07:50:19.160Z,76.69
2023-04-08T07:52:46.849Z,80.11
2023-04-08T07:55:15.993Z,78.56
2023-04-08T07:57:43.965Z,80.58
2023-04-08T08:00:14.359Z,88.11
2023-04-08T08:02:43.287Z,73.85
2023-04-08T08:05:11.115Z,74.71
2023-04-08T08:07:41.399Z,71.75
2023-04-08T08:10:09.757Z,68.94
2023-04-08T08:12:39.327Z,73.19
2023-04-08T08:15:08.303Z,75.23
2023-04-08T08:17:36.699Z,74.21
2023-04-08T08:20:05.828Z,75.53
2023-04-08T08:22:33.678Z,76.12
2023-04-08T08:25:01.517Z,77.36
2023-04-08T08:27:29.541Z,74.53
2023-04-08T08:29:58.837Z,75.84
2023-04-08T08:32:26.892Z,76.59
2023-04-08T08:34:54.569Z,76.25
2023-04-08T08:37:22.772Z,76.61
2023-04-08T08:39:50.794Z,69.54
2023-04-08T08:42:19.781Z,69.55
2023-04-08T08:44:48.502Z,69.84
2023-04-08T08:47:18.710Z,71.79
2023-04-08T08:49:48.093Z,67.53
2023-04-08T08:52:16.711Z,68.88
2023-04-08T08:54:44.839Z,66.53
2023-04-08T08:57:19.439Z,65.83
2023-04-08T08:59:49.543Z,65.05
2023-04-08T09:02:29.252Z,60.18
2023-04-08T09:05:01.200Z,65.15
2023-04-08T09:07:32.089Z,67.74
2023-04-08T09:10:00.194Z,69.80
2023-04-08T09:12:30.816Z,69.11
2023-04-08T09:15:06.561Z,68.49
2023-04-08T09:17:37.107Z,69.60
2023-04-08T09:20:06.737Z,69.56
2023-04-08T09:22:34.320Z,69.35
2023-04-08T09:25:22.520Z,71.47
2023-04-08T09:27:52.029Z,68.81
2023-04-08T09:30:22.438Z,65.11
2023-04-08T09:32:57.790Z,64.12
2023-04-08T09:35:25.690Z,63.79
2023-04-08T09:37:53.753Z,63.61
2023-04-08T09:40:24.789Z,64.29
2023-04-08T09:42:54.465Z,63.76
2023-04-08T09:45:22.591Z,65.87
2023-04-08T09:47:57.713Z,64.26
2023-04-08T09:50:29.275Z,66.12
2023-04-08T09:53:09.704Z,62.22
2023-04-08T09:55:38.529Z,62.75
2023-04-08T09:58:15.483Z,64.63
2023-04-08T10:00:49.364Z,61.58
2023-04-08T10:03:27.377Z,66.17
2023-04-08T10:06:02.126Z,63.95
2023-04-08T10:08:32.934Z,65.74
2023-04-08T10:11:03.452Z,66.09
2023-04-08T10:13:36.011Z,62.19
2023-04-08T10:16:20.198Z,61.76
2023-04-08T10:18:49.435Z,61.41
2023-04-08T10:21:31.336Z,62.61
2023-04-08T10:23:59.786Z,60.01
2023-04-08T10:26:31.890Z,61.51
2023-04-08T10:29:32.052Z,63.85
2023-04-08T10:32:02.601Z,62.32
2023-04-08T10:34:53.164Z,61.90
2023-04-08T10:37:21.288Z,62.61
2023-04-08T10:39:50.388Z,67.59
2023-04-08T10:42:18.038Z,68.07
2023-04-08T10:44:45.672Z,68.75
2023-04-08T10:47:13.280Z,71.34
2023-04-08T10:49:42.454Z,73.26
2023-04-08T10:52:11.765Z,71.08
2023-04-08T10:54:50.043Z,70.51
2023-04-08T10:57:24.215Z,68.75
2023-04-08T10:59:52.172Z,71.21
2023-04-08T11:02:19.946Z,70.41
2023-04-08T11:04:48.990Z,69.33
2023-04-08T11:07:16.845Z,69.76
2023-04-08T11:09:57.269Z,70.24
2023-04-08T11:12:34.743Z,70.10
2023-04-08T11:15:09.961Z,70.20
2023-04-08T11:17:38.368Z,71.00
2023-04-08T11:20:15.286Z,67.79
2023-04-08T11:22:45.751Z,67.16
2023-04-08T11:25:13.516Z,69.34
2023-04-08T11:27:42.200Z,68.66
2023-04-08T11:30:12.110Z,67.75
2023-04-08T11:32:40.227Z,66.75
2023-04-08T11:35:08.370Z,67.27
2023-04-08T11:37:42.038Z,66.46
2023-04-08T11:40:23.307Z,66.33
2023-04-08T11:42:54.270Z,67.26
2023-04-08T11:45:22.465Z,64.38
2023-04-08T11:47:50.497Z,67.54
2023-04-08T11:50:24.932Z,67.83
2023-04-08T11:52:56.062Z,67.91
2023-04-08T11:55:26.027Z,68.32
2023-04-08T11:57:57.923Z,71.27
2023-04-08T12:00:25.830Z,72.37
2023-04-08T12:02:55.001Z,72.24
2023-04-08T12:05:23.370Z,73.32
2023-04-08T12:07:55.091Z,72.81
2023-04-08T12:10:24.441Z,75.85
2023-04-08T12:12:56.840Z,74.22
2023-04-08T12:15:24.788Z,75.65
2023-04-08T12:17:52.820Z,78.10
2023-04-08T12:20:21.312Z,78.54
2023-04-08T12:22:51.796Z,78.69
2023-04-08T12:25:20.949Z,77.55
2023-04-08T12:27:48.786Z,77.65
2023-04-08T12:30:16.796Z,76.81
2023-04-08T12:32:44.821Z,77.17
2023-04-08T12:35:12.733Z,77.46
2023-04-08T12:37:40.319Z,79.12
2023-04-08T12:40:11.367Z,78.34
2023-04-08T12:42:43.758Z,79.37
2023-04-08T12:45:12.226Z,77.61
2023-04-08T12:47:40.971Z,77.18
2023-04-08T12:50:09.651Z,77.66
2023-04-08T12:52:39.173Z,80.33
2023-04-08T12:55:07.742Z,76.03
2023-04-08T12:57:35.945Z,76.46
2023-04-08T13:00:07.788Z,77.36
2023-04-08T13:02:36.405Z,72.64
2023-04-08T13:05:04.456Z,72.17
2023-04-08T13:07:32.191Z,72.37
2023-04-08T13:10:00.006Z,71.27
2023-04-08T13:12:27.737Z,70.84
2023-04-08T13:14:56.026Z,69.30
2023-04-08T13:17:25.325Z,69.60
2023-04-08T13:19:53.505Z,69.08
2023-04-08T13:22:21.212Z,71.06
2023-04-08T13:24:54.646Z,69.21
2023-04-08T13:27:22.232Z,71.68
2023-04-08T13:29:51.337Z,73.20
2023-04-08T13:32:19.399Z,76.44
2023-04-08T13:34:48.389Z,78.19
2023-04-08T13:37:17.224Z,78.90
2023-04-08T13:39:45.207Z,80.99
2023-04-08T13:42:12.824Z,78.67
2023-04-08T13:44:41.820Z,79.03
2023-04-08T13:47:09.540Z,79.94
2023-04-08T13:49:37.411Z,78.91
2023-04-08T13:52:06.855Z,78.05
2023-04-08T13:54:36.363Z,76.93
2023-04-08T13:57:04.176Z,74.95
2023-04-08T13:59:31.926Z,75.68
2023-04-08T14:02:00.378Z,74.83
2023-04-08T14:04:28.110Z,72.59
2023-04-08T14:06:55.956Z,73.44
2023-04-08T14:09:26.616Z,72.95
2023-04-08T14:11:54.699Z,72.73
2023-04-08T14:14:22.402Z,71.65
2023-04-08T14:16:51.647Z,71.40
2023-04-08T14:19:19.364Z,71.76
2023-04-08T14:21:47.575Z,70.55
2023-04-08T14:24:15.541Z,70.84
2023-04-08T14:26:44.769Z,70.66
2023-04-08T14:29:12.535Z,69.01
2023-04-08T14:31:40.327Z,71.02
2023-04-08T14:34:07.928Z,71.57
2023-04-08T14:36:37.466Z,70.83
2023-04-08T14:39:05.497Z,68.88
2023-04-08T14:41:36.476Z,69.71
2023-04-08T14:44:06.214Z,69.55
2023-04-08T14:46:36.714Z,71.74
2023-04-08T14:49:04.677Z,70.97
2023-04-08T14:51:32.450Z,71.92
2023-04-08T14:54:00.012Z,72.75
2023-04-08T14:56:28.316Z,75.09
2023-04-08T14:58:56.472Z,76.92
2023-04-08T15:01:26.212Z,76.94
2023-04-08T15:03:54.120Z,78.13
2023-04-08T15:06:23.812Z,77.78
2023-04-08T15:08:52.288Z,78.19
2023-04-08T15:11:20.306Z,79.93
2023-04-08T15:13:59.652Z,79.04
2023-04-08T15:16:28.870Z,78.94
2023-04-08T15:18:56.491Z,77.91
2023-04-08T15:21:25.074Z,78.74
2023-04-08T15:23:52.763Z,80.54
2023-04-08T15:26:20.334Z,81.33
2023-04-08T15:28:48.570Z,82.90
2023-04-08T15:31:16.549Z,84.13
2023-04-08T15:33:47.060Z,84.23
2023-04-08T15:36:15.457Z,84.50
2023-04-08T15:38:43.223Z,82.42
2023-04-08T15:41:16.127Z,82.40
2023-04-08T15:43:44.811Z,82.21
2023-04-08T15:46:17.138Z,82.97
2023-04-08T15:48:46.305Z,85.55
2023-04-08T15:51:14.048Z,87.17
2023-04-08T15:53:41.962Z,87.96
2023-04-08T15:56:18.800Z,90.09
2023-04-08T15:58:48.151Z,91.07
2023-04-08T16:01:16.096Z,92.73
2023-04-08T16:03:46.668Z,93.33
2023-04-08T16:06:14.673Z,94.07
2023-04-08T16:08:45.210Z,94.61
2023-04-08T16:11:12.973Z,96.23
2023-04-08T16:13:41.439Z,97.72
2023-04-08T16:16:09.453Z,99.10
2023-04-08T16:18:39.782Z,100.00
2023-04-08T16:21:09.021Z,100.00
2023-04-08T16:23:36.716Z,100.00
2023-04-08T16:26:07.828Z,100.00
2023-04-08T16:28:35.945Z,100.00
2023-04-08T16:31:03.804Z,100.00
2023-04-08T16:33:34.510Z,100.00
2023-04-08T16:36:02.610Z,100.00
2023-04-08T16:38:36.718Z,100.00
2023-04-08T16:41:05.136Z,100.00
2023-04-08T16:43:32.761Z,100.00
2023-04-08T16:46:08.926Z,100.00
2023-04-08T16:48:37.026Z,100.00
2023-04-08T16:51:04.824Z,100.00
2023-04-08T16:53:33.033Z,100.00
2023-04-08T16:56:02.610Z,100.00
2023-04-08T16:58:30.357Z,100.00
2023-04-08T17:01:01.665Z,100.00
2023-04-08T17:03:30.546Z,100.00
2023-04-08T17:06:06.435Z,100.00
2023-04-08T17:08:39.478Z,100.00
2023-04-08T17:11:10.628Z,100.00
2023-04-08T17:13:41.780Z,100.00
2023-04-08T17:16:12.872Z,100.00
2023-04-08T17:18:45.898Z,100.00
2023-04-08T17:21:13.690Z,100.00
2023-04-08T17:23:42.514Z,100.00
2023-04-08T17:26:11.988Z,100.00
2023-04-08T17:28:40.048Z,100.00
2023-04-08T17:31:09.470Z,100.00
2023-04-08T17:33:37.377Z,100.00
2023-04-08T17:36:05.796Z,100.00
2023-04-08T17:38:33.803Z,100.00
2023-04-08T17:41:01.407Z,100.00
2023-04-08T17:43:35.688Z,100.00
2023-04-08T17:46:03.864Z,100.00
2023-04-08T17:48:31.552Z,100.00
2023-04-08T17:51:00.109Z,100.00
2023-04-08T17:53:30.041Z,100.00
2023-04-08T17:56:05.614Z,100.00
2023-04-08T17:58:33.245Z,100.00
2023-04-08T18:01:02.328Z,100.00
2023-04-08T18:03:30.773Z,100.00
2023-04-08T18:06:01.916Z,100.00
2023-04-08T18:08:29.952Z,100.00
2023-04-08T18:10:58.069Z,100.00
2023-04-08T18:13:28.980Z,100.00
2023-04-08T18:15:56.566Z,100.00
2023-04-08T18:18:31.807Z,100.00
2023-04-08T18:21:03.690Z,100.00
2023-04-08T18:23:33.982Z,100.00
2023-04-08T18:26:02.064Z,100.00
2023-04-08T18:28:32.284Z,100.00
2023-04-08T18:31:06.362Z,100.00
2023-04-08T18:33:35.464Z,100.00
2023-04-08T18:36:07.021Z,100.00
2023-04-08T18:38:39.481Z,100.00
2023-04-08T18:41:12.013Z,100.00
2023-04-08T18:43:40.420Z,100.00
2023-04-08T18:46:08.102Z,100.00
2023-04-08T18:48:39.639Z,100.00
2023-04-08T18:51:09.825Z,100.00
2023-04-08T18:53:39.438Z,100.00
2023-04-08T18:56:14.476Z,100.00
2023-04-08T18:58:44.176Z,100.00
2023-04-08T19:01:11.921Z,100.00
2023-04-08T19:03:44.004Z,100.00
2023-04-08T19:06:15.552Z,100.00
2023-04-08T19:08:47.048Z,100.00
2023-04-08T19:11:18.216Z,100.00
2023-04-08T19:13:48.267Z,100.00
2023-04-08T19:16:16.606Z,100.00
2023-04-08T19:18:46.662Z,100.00
2023-04-08T19:21:14.331Z,100.00
2023-04-08T19:23:44.251Z,100.00
2023-04-08T19:26:12.647Z,100.00
2023-04-08T19:28:44.965Z,100.00
2023-04-08T19:31:19.027Z,100.00
2023-04-08T19:33:48.522Z,100.00
2023-04-08T19:36:26.123Z,100.00
2023-04-08T19:38:53.755Z,100.00
2023-04-08T19:41:21.502Z,100.00
2023-04-08T19:43:50.781Z,100.00
2023-04-08T19:46:24.818Z,100.00
2023-04-08T19:48:54.203Z,100.00
2023-04-08T19:51:21.911Z,100.00
2023-04-08T19:53:50.004Z,100.00
2023-04-08T19:56:18.955Z,100.00
2023-04-08T19:58:49.938Z,100.00
2023-04-08T20:01:21.548Z,100.00
2023-04-08T20:03:49.335Z,100.00
2023-04-08T20:06:18.983Z,100.00
2023-04-08T20:08:47.217Z,100.00
2023-04-08T20:11:20.187Z,100.00
2023-04-08T20:13:48.306Z,100.00
2023-04-08T20:16:20.354Z,100.00
2023-04-08T20:18:48.130Z,100.00
2023-04-08T20:21:21.423Z,100.00
2023-04-08T20:23:54.258Z,100.00
2023-04-08T20:26:23.344Z,100.00
2023-04-08T20:28:56.330Z,100.00
2023-04-08T20:31:26.072Z,100.00
2023-04-08T20:34:02.084Z,100.00
2023-04-08T20:36:32.200Z,100.00
2023-04-08T20:38:59.758Z,100.00
2023-04-08T20:41:28.227Z,100.00
2023-04-08T20:43:56.040Z,100.00
2023-04-08T20:46:30.348Z,100.00
2023-04-08T20:48:58.490Z,100.00
2023-04-08T20:51:26.634Z,100.00
2023-04-08T20:53:57.830Z,100.00
2023-04-08T20:56:27.262Z,100.00
2023-04-08T20:59:01.300Z,100.00
2023-04-08T21:01:30.649Z,100.00
2023-04-08T21:04:51.861Z,100.00
2023-04-08T21:07:33.369Z,100.00
2023-04-08T21:13:27.522Z,100.00
2023-04-08T21:15:55.544Z,100.00
2023-04-08T21:18:41.192Z,100.00
2023-04-08T21:24:39.669Z,100.00
2023-04-08T21:27:36.606Z,100.00
2023-04-08T21:30:28.063Z,100.00
2023-04-08T21:36:08.307Z,100.00
2023-04-08T21:39:10.315Z,100.00
2023-04-08T21:41:55.121Z,100.00
2023-04-08T21:44:55.080Z,100.00
2023-04-08T21:47:22.817Z,100.00
2023-04-08T21:50:06.061Z,100.00
2023-04-08T21:52:41.666Z,100.00
2023-04-08T21:55:11.531Z,100.00
2023-04-08T21:57:41.767Z,100.00
2023-04-08T22:00:12.353Z,100.00
2023-04-08T22:02:41.762Z,100.00
2023-04-08T22:05:12.031Z,100.00
2023-04-08T22:07:42.974Z,100.00
2023-04-08T22:10:13.576Z,100.00
2023-04-08T22:12:42.110Z,100.00
2023-04-08T22:15:12.056Z,100.00
2023-04-08T22:17:41.325Z,100.00
2023-04-08T22:20:12.417Z,100.00
2023-04-08T22:22:41.449Z,100.00
2023-04-08T22:25:09.734Z,100.00
2023-04-08T22:27:37.428Z,100.00
2023-04-08T22:30:11.628Z,100.00
2023-04-08T22:32:51.443Z,100.00
2023-04-08T22:35:19.822Z,100.00
2023-04-08T22:37:48.852Z,100.00
2023-04-08T22:40:16.817Z,100.00
2023-04-08T22:42:44.650Z,100.00
2023-04-08T22:45:13.641Z,100.00
2023-04-08T22:47:41.366Z,100.00
2023-04-08T22:50:10.793Z,100.00
2023-04-08T22:52:38.575Z,100.00
2023-04-08T22:55:07.231Z,100.00
2023-04-08T22:57:35.260Z,100.00
2023-04-08T23:00:04.342Z,100.00
2023-04-08T23:02:35.169Z,100.00
2023-04-08T23:05:03.274Z,100.00
2023-04-08T23:07:31.530Z,100.00
2023-04-08T23:09:59.945Z,100.00
2023-04-08T23:12:27.618Z,100.00
2023-04-08T23:15:01.173Z,100.00
2023-04-08T23:17:29.434Z,100.00
2023-04-08T23:19:58.583Z,100.00
2023-04-08T23:22:26.327Z,100.00
2023-04-08T23:24:54.485Z,100.00
2023-04-08T23:27:22.150Z,100.00
2023-04-08T23:29:50.482Z,100.00
2023-04-08T23:32:18.107Z,100.00
2023-04-08T23:34:45.698Z,100.00
2023-04-08T23:37:14.855Z,100.00
2023-04-08T23:39:44.157Z,100.00
2023-04-08T23:42:11.722Z,100.00
2023-04-08T23:44:40.015Z,100.00
2023-04-08T23:47:07.724Z,100.00
2023-04-08T23:49:37.531Z,100.00
2023-04-08T23:52:05.852Z,100.00
2023-04-08T23:54:34.857Z,100.00
2023-04-08T23:57:02.762Z,100.00
2023-04-08T23:59:30.577Z,100.00
